sensor_id;sensor_type;location;lat;lon;timestamp;pressure;altitude;pressure_sealevel;temperature;humidity
22104;BME280;11218;48.886;9.426;2023-04-04T00:00:51;98857.59;;;1.65;60.94
22104;BME280;11218;48.886;9.426;2023-04-04T00:03:20;98854.44;;;1.70;61.26
22104;BME280;11218;48.886;9.426;2023-04-04T00:05:48;98850.13;;;1.69;60.86
22104;BME280;11218;48.886;9.426;2023-04-04T00:08:17;98849.94;;;1.71;61.34
22104;BME280;11218;48.886;9.426;2023-04-04T00:10:45;98844.66;;;1.71;61.90
22104;BME280;11218;48.886;9.426;2023-04-04T00:13:15;98842.81;;;1.71;61.92
22104;BME280;11218;48.886;9.426;2023-04-04T00:15:43;98836.22;;;1.67;62.28
22104;BME280;11218;48.886;9.426;2023-04-04T00:18:12;98839.50;;;1.69;61.61
22104;BME280;11218;48.886;9.426;2023-04-04T00:20:41;98838.38;;;1.63;62.13
22104;BME280;11218;48.886;9.426;2023-04-04T00:23:09;98830.94;;;1.59;62.18
22104;BME280;11218;48.886;9.426;2023-04-04T00:25:37;98831.41;;;1.62;62.51
22104;BME280;11218;48.886;9.426;2023-04-04T00:28:06;98838.50;;;1.70;63.14
22104;BME280;11218;48.886;9.426;2023-04-04T00:30:35;98834.69;;;1.73;63.58
22104;BME280;11218;48.886;9.426;2023-04-04T00:33:05;98828.41;;;1.65;62.21
22104;BME280;11218;48.886;9.426;2023-04-04T00:35:34;98823.28;;;1.64;62.90
22104;BME280;11218;48.886;9.426;2023-04-04T00:38:02;98829.38;;;1.73;63.80
22104;BME280;11218;48.886;9.426;2023-04-04T00:40:30;98822.41;;;1.72;62.84
22104;BME280;11218;48.886;9.426;2023-04-04T00:42:59;98816.94;;;1.73;63.49
22104;BME280;11218;48.886;9.426;2023-04-04T00:45:27;98816.16;;;1.64;62.71
22104;BME280;11218;48.886;9.426;2023-04-04T00:47:58;98824.16;;;1.56;62.43
22104;BME280;11218;48.886;9.426;2023-04-04T00:50:28;98819.97;;;1.62;64.26
22104;BME280;11218;48.886;9.426;2023-04-04T00:52:57;98817.47;;;1.69;63.29
22104;BME280;11218;48.886;9.426;2023-04-04T00:55:26;98812.97;;;1.69;64.67
22104;BME280;11218;48.886;9.426;2023-04-04T00:57:54;98806.50;;;1.72;64.27
22104;BME280;11218;48.886;9.426;2023-04-04T01:00:22;98812.63;;;1.72;64.31
22104;BME280;11218;48.886;9.426;2023-04-04T01:02:52;98812.16;;;1.69;64.86
22104;BME280;11218;48.886;9.426;2023-04-04T01:05:21;98807.19;;;1.65;63.85
22104;BME280;11218;48.886;9.426;2023-04-04T01:07:50;98809.19;;;1.63;64.28
22104;BME280;11218;48.886;9.426;2023-04-04T01:10:18;98801.22;;;1.63;65.48
22104;BME280;11218;48.886;9.426;2023-04-04T01:12:46;98797.41;;;1.66;65.22
22104;BME280;11218;48.886;9.426;2023-04-04T01:15:14;98801.53;;;1.69;64.32
22104;BME280;11218;48.886;9.426;2023-04-04T01:17:42;98808.59;;;1.53;61.83
22104;BME280;11218;48.886;9.426;2023-04-04T01:20:14;98810.75;;;1.50;63.58
22104;BME280;11218;48.886;9.426;2023-04-04T01:22:44;98805.66;;;1.48;63.56
22104;BME280;11218;48.886;9.426;2023-04-04T01:25:14;98806.00;;;1.45;63.44
22104;BME280;11218;48.886;9.426;2023-04-04T01:27:46;98805.81;;;1.47;63.85
22104;BME280;11218;48.886;9.426;2023-04-04T01:30:15;98800.38;;;1.40;64.41
22104;BME280;11218;48.886;9.426;2023-04-04T01:32:47;98808.00;;;1.43;65.04
22104;BME280;11218;48.886;9.426;2023-04-04T01:35:23;98806.00;;;1.45;64.92
22104;BME280;11218;48.886;9.426;2023-04-04T01:37:58;98805.03;;;1.38;65.13
22104;BME280;11218;48.886;9.426;2023-04-04T01:40:32;98805.53;;;1.34;65.10
22104;BME280;11218;48.886;9.426;2023-04-04T01:43:03;98793.72;;;0.97;62.83
22104;BME280;11218;48.886;9.426;2023-04-04T01:45:31;98793.09;;;0.79;63.70
22104;BME280;11218;48.886;9.426;2023-04-04T01:48:02;98805.50;;;0.86;64.53
22104;BME280;11218;48.886;9.426;2023-04-04T01:50:30;98796.91;;;0.76;63.77
22104;BME280;11218;48.886;9.426;2023-04-04T01:52:58;98798.97;;;0.66;64.11
22104;BME280;11218;48.886;9.426;2023-04-04T01:55:28;98793.34;;;0.61;64.57
22104;BME280;11218;48.886;9.426;2023-04-04T01:57:59;98799.31;;;0.47;64.13
22104;BME280;11218;48.886;9.426;2023-04-04T02:00:34;98795.31;;;0.51;65.91
22104;BME280;11218;48.886;9.426;2023-04-04T02:03:06;98795.97;;;0.61;65.82
22104;BME280;11218;48.886;9.426;2023-04-04T02:05:38;98801.06;;;0.79;67.25
22104;BME280;11218;48.886;9.426;2023-04-04T02:08:11;98792.09;;;0.88;65.83
22104;BME280;11218;48.886;9.426;2023-04-04T02:10:43;98793.91;;;0.95;66.46
22104;BME280;11218;48.886;9.426;2023-04-04T02:13:13;98779.16;;;0.93;65.53
22104;BME280;11218;48.886;9.426;2023-04-04T02:15:47;98788.44;;;0.89;66.23
22104;BME280;11218;48.886;9.426;2023-04-04T02:18:19;98794.56;;;0.89;65.83
22104;BME280;11218;48.886;9.426;2023-04-04T02:20:55;98785.00;;;0.80;65.49
22104;BME280;11218;48.886;9.426;2023-04-04T02:23:27;98788.34;;;0.74;65.02
22104;BME280;11218;48.886;9.426;2023-04-04T02:25:58;98780.03;;;0.77;66.71
22104;BME280;11218;48.886;9.426;2023-04-04T02:28:29;98784.16;;;0.80;66.28
22104;BME280;11218;48.886;9.426;2023-04-04T02:31:02;98778.69;;;0.89;66.09
22104;BME280;11218;48.886;9.426;2023-04-04T02:33:33;98783.47;;;0.94;66.39
22104;BME280;11218;48.886;9.426;2023-04-04T02:36:05;98785.09;;;1.03;66.38
22104;BME280;11218;48.886;9.426;2023-04-04T02:38:37;98782.63;;;1.02;67.52
22104;BME280;11218;48.886;9.426;2023-04-04T02:41:08;98782.75;;;1.08;66.97
22104;BME280;11218;48.886;9.426;2023-04-04T02:43:39;98786.72;;;1.12;66.97
22104;BME280;11218;48.886;9.426;2023-04-04T02:46:12;98782.09;;;1.06;66.02
22104;BME280;11218;48.886;9.426;2023-04-04T02:48:48;98788.25;;;0.98;65.60
22104;BME280;11218;48.886;9.426;2023-04-04T02:51:19;98787.25;;;0.99;66.45
22104;BME280;11218;48.886;9.426;2023-04-04T02:53:47;98785.63;;;0.98;65.93
22104;BME280;11218;48.886;9.426;2023-04-04T02:56:15;98786.13;;;0.94;66.19
22104;BME280;11218;48.886;9.426;2023-04-04T02:58:43;98785.81;;;0.89;66.59
22104;BME280;11218;48.886;9.426;2023-04-04T03:01:12;98790.28;;;0.80;67.08
22104;BME280;11218;48.886;9.426;2023-04-04T03:03:41;98778.53;;;0.83;66.70
22104;BME280;11218;48.886;9.426;2023-04-04T03:06:09;98787.31;;;0.83;66.87
22104;BME280;11218;48.886;9.426;2023-04-04T03:08:40;98771.56;;;0.82;68.17
22104;BME280;11218;48.886;9.426;2023-04-04T03:11:11;98783.00;;;0.82;66.97
22104;BME280;11218;48.886;9.426;2023-04-04T03:13:39;98785.00;;;0.80;66.72
22104;BME280;11218;48.886;9.426;2023-04-04T03:16:07;98788.47;;;0.81;68.11
22104;BME280;11218;48.886;9.426;2023-04-04T03:18:37;98778.88;;;0.80;67.54
22104;BME280;11218;48.886;9.426;2023-04-04T03:21:05;98782.69;;;0.77;67.47
22104;BME280;11218;48.886;9.426;2023-04-04T03:23:33;98789.16;;;0.75;67.09
22104;BME280;11218;48.886;9.426;2023-04-04T03:26:01;98779.56;;;0.74;67.33
22104;BME280;11218;48.886;9.426;2023-04-04T03:28:29;98776.28;;;0.72;66.91
22104;BME280;11218;48.886;9.426;2023-04-04T03:31:02;98784.22;;;0.72;67.38
22104;BME280;11218;48.886;9.426;2023-04-04T03:33:30;98777.09;;;0.64;67.13
22104;BME280;11218;48.886;9.426;2023-04-04T03:36:01;98779.09;;;0.62;67.97
22104;BME280;11218;48.886;9.426;2023-04-04T03:38:29;98776.63;;;0.60;67.60
22104;BME280;11218;48.886;9.426;2023-04-04T03:41:00;98776.28;;;0.55;67.77
22104;BME280;11218;48.886;9.426;2023-04-04T03:43:29;98780.44;;;0.58;68.30
22104;BME280;11218;48.886;9.426;2023-04-04T03:46:01;98778.44;;;0.60;68.08
22104;BME280;11218;48.886;9.426;2023-04-04T03:48:30;98777.44;;;0.61;68.10
22104;BME280;11218;48.886;9.426;2023-04-04T03:51:01;98777.59;;;0.59;66.99
22104;BME280;11218;48.886;9.426;2023-04-04T03:53:29;98775.31;;;0.48;67.09
22104;BME280;11218;48.886;9.426;2023-04-04T03:55:58;98783.91;;;0.50;67.32
22104;BME280;11218;48.886;9.426;2023-04-04T03:58:27;98779.44;;;0.43;66.94
22104;BME280;11218;48.886;9.426;2023-04-04T04:00:55;98785.25;;;0.46;67.99
22104;BME280;11218;48.886;9.426;2023-04-04T04:03:23;98778.28;;;0.29;67.38
22104;BME280;11218;48.886;9.426;2023-04-04T04:05:52;98785.06;;;0.23;66.91
22104;BME280;11218;48.886;9.426;2023-04-04T04:08:24;98783.44;;;-0.02;66.77
22104;BME280;11218;48.886;9.426;2023-04-04T04:10:53;98783.59;;;-0.04;67.90
22104;BME280;11218;48.886;9.426;2023-04-04T04:13:21;98784.56;;;0.04;68.42
22104;BME280;11218;48.886;9.426;2023-04-04T04:15:49;98789.03;;;0.11;68.37
22104;BME280;11218;48.886;9.426;2023-04-04T04:18:18;98782.09;;;0.10;68.58
22104;BME280;11218;48.886;9.426;2023-04-04T04:20:46;98787.06;;;0.13;69.00
22104;BME280;11218;48.886;9.426;2023-04-04T04:23:14;98782.75;;;0.12;67.39
22104;BME280;11218;48.886;9.426;2023-04-04T04:25:46;98783.41;;;0.14;68.26
22104;BME280;11218;48.886;9.426;2023-04-04T04:28:14;98789.53;;;0.15;68.61
22104;BME280;11218;48.886;9.426;2023-04-04T04:30:44;98777.63;;;0.11;67.76
22104;BME280;11218;48.886;9.426;2023-04-04T04:33:13;98786.38;;;0.03;67.11
22104;BME280;11218;48.886;9.426;2023-04-04T04:35:41;98783.25;;;-0.09;66.96
22104;BME280;11218;48.886;9.426;2023-04-04T04:38:09;98791.19;;;-0.17;66.88
22104;BME280;11218;48.886;9.426;2023-04-04T04:40:37;98785.38;;;-0.28;67.55
22104;BME280;11218;48.886;9.426;2023-04-04T04:43:07;98785.34;;;-0.37;67.48
22104;BME280;11218;48.886;9.426;2023-04-04T04:45:35;98793.97;;;-0.26;69.12
22104;BME280;11218;48.886;9.426;2023-04-04T04:48:04;98791.19;;;-0.17;68.66
22104;BME280;11218;48.886;9.426;2023-04-04T04:50:32;98779.13;;;-0.11;68.75
22104;BME280;11218;48.886;9.426;2023-04-04T04:53:01;98786.22;;;-0.20;67.57
22104;BME280;11218;48.886;9.426;2023-04-04T04:55:29;98792.16;;;-0.26;67.30
22104;BME280;11218;48.886;9.426;2023-04-04T04:57:57;98793.50;;;-0.22;67.45
22104;BME280;11218;48.886;9.426;2023-04-04T05:00:29;98787.03;;;-0.27;66.81
22104;BME280;11218;48.886;9.426;2023-04-04T05:02:57;98789.81;;;-0.37;67.34
22104;BME280;11218;48.886;9.426;2023-04-04T05:05:26;98801.22;;;-0.37;67.35
22104;BME280;11218;48.886;9.426;2023-04-04T05:07:54;98798.88;;;-0.48;66.67
22104;BME280;11218;48.886;9.426;2023-04-04T05:10:22;98800.31;;;-0.61;67.33
22104;BME280;11218;48.886;9.426;2023-04-04T05:12:50;98792.38;;;-0.61;67.51
22104;BME280;11218;48.886;9.426;2023-04-04T05:15:18;98800.59;;;-0.73;68.02
22104;BME280;11218;48.886;9.426;2023-04-04T05:17:49;98793.03;;;-0.68;68.26
22104;BME280;11218;48.886;9.426;2023-04-04T05:20:17;98801.78;;;-0.75;68.08
22104;BME280;11218;48.886;9.426;2023-04-04T05:22:45;98798.97;;;-0.66;68.68
22104;BME280;11218;48.886;9.426;2023-04-04T05:25:15;98799.63;;;-0.72;nan
22104;BME280;11218;48.886;9.426;2023-04-04T05:27:46;98799.78;;;-0.73;68.05
22104;BME280;11218;48.886;9.426;2023-04-04T05:30:15;98801.94;;;-0.77;68.36
22104;BME280;11218;48.886;9.426;2023-04-04T05:32:43;98800.63;;;-0.64;68.20
22104;BME280;11218;48.886;9.426;2023-04-04T05:35:13;98799.47;;;-0.70;68.33
22104;BME280;11218;48.886;9.426;2023-04-04T05:37:41;98795.81;;;-0.77;68.21
22104;BME280;11218;48.886;9.426;2023-04-04T05:40:10;98807.06;;;-0.67;69.09
22104;BME280;11218;48.886;9.426;2023-04-04T05:42:38;98804.97;;;-0.55;68.82
22104;BME280;11218;48.886;9.426;2023-04-04T05:45:07;98811.09;;;-0.47;68.64
22104;BME280;11218;48.886;9.426;2023-04-04T05:47:35;98804.66;;;-0.52;68.28
22104;BME280;11218;48.886;9.426;2023-04-04T05:50:04;98799.19;;;-0.51;68.08
22104;BME280;11218;48.886;9.426;2023-04-04T05:52:34;98806.75;;;-0.64;68.70
22104;BME280;11218;48.886;9.426;2023-04-04T05:55:02;98816.53;;;-0.56;68.80
22104;BME280;11218;48.886;9.426;2023-04-04T05:57:30;98813.09;;;-0.49;69.41
22104;BME280;11218;48.886;9.426;2023-04-04T05:59:59;98808.84;;;-0.34;69.47
22104;BME280;11218;48.886;9.426;2023-04-04T06:02:27;98807.88;;;-0.24;69.38
22104;BME280;11218;48.886;9.426;2023-04-04T06:04:55;98802.44;;;-0.15;69.39
22104;BME280;11218;48.886;9.426;2023-04-04T06:07:24;98811.34;;;0.00;70.06
22104;BME280;11218;48.886;9.426;2023-04-04T06:09:53;98810.38;;;0.10;69.24
22104;BME280;11218;48.886;9.426;2023-04-04T06:12:22;98810.88;;;0.13;68.83
22104;BME280;11218;48.886;9.426;2023-04-04T06:14:50;98810.53;;;0.16;68.88
22104;BME280;11218;48.886;9.426;2023-04-04T06:17:18;98808.25;;;0.21;68.38
22104;BME280;11218;48.886;9.426;2023-04-04T06:19:46;98810.56;;;0.24;68.15
22104;BME280;11218;48.886;9.426;2023-04-04T06:22:14;98820.00;;;0.35;68.17
22104;BME280;11218;48.886;9.426;2023-04-04T06:24:43;98810.22;;;0.44;69.23
22104;BME280;11218;48.886;9.426;2023-04-04T06:27:13;98811.06;;;0.52;67.97
22104;BME280;11218;48.886;9.426;2023-04-04T06:29:41;98805.25;;;0.57;68.29
22104;BME280;11218;48.886;9.426;2023-04-04T06:32:09;98802.94;;;0.70;66.76
22104;BME280;11218;48.886;9.426;2023-04-04T06:34:37;98806.56;;;0.69;66.19
22104;BME280;11218;48.886;9.426;2023-04-04T06:37:05;98806.84;;;0.82;64.94
22104;BME280;11218;48.886;9.426;2023-04-04T06:39:33;98813.44;;;0.94;65.83
22104;BME280;11218;48.886;9.426;2023-04-04T06:42:02;98805.44;;;1.19;62.12
22104;BME280;11218;48.886;9.426;2023-04-04T06:44:31;98812.16;;;1.38;61.70
22104;BME280;11218;48.886;9.426;2023-04-04T06:46:59;98798.41;;;1.65;61.37
22104;BME280;11218;48.886;9.426;2023-04-04T06:49:27;98798.28;;;1.89;60.18
22104;BME280;11218;48.886;9.426;2023-04-04T06:51:55;98797.75;;;2.17;59.53
22104;BME280;11218;48.886;9.426;2023-04-04T06:54:24;98804.69;;;2.41;57.99
22104;BME280;11218;48.886;9.426;2023-04-04T06:56:53;98807.28;;;2.49;53.76
22104;BME280;11218;48.886;9.426;2023-04-04T06:59:21;98810.25;;;2.69;54.12
22104;BME280;11218;48.886;9.426;2023-04-04T07:01:50;98799.94;;;2.88;54.60
22104;BME280;11218;48.886;9.426;2023-04-04T07:04:18;98802.22;;;2.91;51.80
22104;BME280;11218;48.886;9.426;2023-04-04T07:06:46;98804.34;;;2.96;51.21
22104;BME280;11218;48.886;9.426;2023-04-04T07:09:14;98791.38;;;3.08;51.54
22104;BME280;11218;48.886;9.426;2023-04-04T07:11:54;98785.88;;;3.24;52.67
22104;BME280;11218;48.886;9.426;2023-04-04T07:14:22;98789.75;;;3.36;50.61
22104;BME280;11218;48.886;9.426;2023-04-04T07:16:53;98789.34;;;3.54;51.54
22104;BME280;11218;48.886;9.426;2023-04-04T07:19:21;98797.41;;;3.60;50.96
22104;BME280;11218;48.886;9.426;2023-04-04T07:21:54;98797.06;;;3.85;50.50
22104;BME280;11218;48.886;9.426;2023-04-04T07:24:22;98789.84;;;4.00;50.56
22104;BME280;11218;48.886;9.426;2023-04-04T07:26:50;98789.34;;;4.33;50.25
22104;BME280;11218;48.886;9.426;2023-04-04T07:29:18;98794.94;;;4.38;48.57
22104;BME280;11218;48.886;9.426;2023-04-04T07:31:47;98788.22;;;4.42;48.85
22104;BME280;11218;48.886;9.426;2023-04-04T07:34:17;98795.19;;;4.43;47.97
22104;BME280;11218;48.886;9.426;2023-04-04T07:36:45;98789.47;;;4.74;48.26
22104;BME280;11218;48.886;9.426;2023-04-04T07:39:13;98794.59;;;4.75;47.17
22104;BME280;11218;48.886;9.426;2023-04-04T07:41:41;98797.75;;;4.57;47.08
22104;BME280;11218;48.886;9.426;2023-04-04T07:44:09;98795.00;;;4.72;46.80
22104;BME280;11218;48.886;9.426;2023-04-04T07:46:37;98793.09;;;4.66;46.33
22104;BME280;11218;48.886;9.426;2023-04-04T07:49:07;98790.78;;;4.84;45.80
22104;BME280;11218;48.886;9.426;2023-04-04T07:51:36;98789.16;;;5.18;46.56
22104;BME280;11218;48.886;9.426;2023-04-04T07:54:05;98797.69;;;5.41;46.62
22104;BME280;11218;48.886;9.426;2023-04-04T07:56:34;98789.44;;;5.36;44.66
22104;BME280;11218;48.886;9.426;2023-04-04T07:59:02;98782.38;;;5.22;44.10
22104;BME280;11218;48.886;9.426;2023-04-04T08:01:30;98790.53;;;5.48;45.54
22104;BME280;11218;48.886;9.426;2023-04-04T08:03:58;98786.66;;;5.57;45.17
22104;BME280;11218;48.886;9.426;2023-04-04T08:06:27;98778.47;;;5.66;44.18
22104;BME280;11218;48.886;9.426;2023-04-04T08:08:56;98786.97;;;5.82;44.68
22104;BME280;11218;48.886;9.426;2023-04-04T08:11:24;98784.34;;;5.89;43.16
22104;BME280;11218;48.886;9.426;2023-04-04T08:13:53;98781.06;;;6.00;44.54
22104;BME280;11218;48.886;9.426;2023-04-04T08:16:21;98776.94;;;5.98;44.01
22104;BME280;11218;48.886;9.426;2023-04-04T08:18:53;98778.59;;;5.99;44.27
22104;BME280;11218;48.886;9.426;2023-04-04T08:21:21;98786.22;;;6.08;43.88
22104;BME280;11218;48.886;9.426;2023-04-04T08:23:49;98780.50;;;6.38;44.63
22104;BME280;11218;48.886;9.426;2023-04-04T08:26:18;98777.44;;;6.54;44.49
22104;BME280;11218;48.886;9.426;2023-04-04T08:28:47;98786.03;;;6.82;43.17
22104;BME280;11218;48.886;9.426;2023-04-04T08:31:15;98791.63;;;6.54;43.72
22104;BME280;11218;48.886;9.426;2023-04-04T08:33:44;98790.81;;;6.54;41.80
22104;BME280;11218;48.886;9.426;2023-04-04T08:36:13;98785.44;;;6.41;42.37
22104;BME280;11218;48.886;9.426;2023-04-04T08:38:41;98782.19;;;6.58;43.52
22104;BME280;11218;48.886;9.426;2023-04-04T08:41:10;98773.72;;;6.68;42.25
22104;BME280;11218;48.886;9.426;2023-04-04T08:43:42;98777.19;;;6.69;42.59
22104;BME280;11218;48.886;9.426;2023-04-04T08:46:13;98788.97;;;6.48;42.52
22104;BME280;11218;48.886;9.426;2023-04-04T08:48:43;98784.44;;;6.48;41.58
22104;BME280;11218;48.886;9.426;2023-04-04T08:51:13;98781.97;;;6.53;42.61
22104;BME280;11218;48.886;9.426;2023-04-04T08:53:41;98780.91;;;6.81;42.22
22104;BME280;11218;48.886;9.426;2023-04-04T08:56:09;98777.59;;;6.99;41.56
22104;BME280;11218;48.886;9.426;2023-04-04T08:58:37;98778.03;;;6.82;40.57
22104;BME280;11218;48.886;9.426;2023-04-04T09:01:07;98780.94;;;6.61;41.76
22104;BME280;11218;48.886;9.426;2023-04-04T09:03:36;98780.72;;;6.56;41.99
22104;BME280;11218;48.886;9.426;2023-04-04T09:06:05;98779.91;;;6.55;43.07
22104;BME280;11218;48.886;9.426;2023-04-04T09:08:33;98778.69;;;6.65;40.00
22104;BME280;11218;48.886;9.426;2023-04-04T09:11:02;98780.53;;;6.51;39.77
22104;BME280;11218;48.886;9.426;2023-04-04T09:13:30;98770.22;;;6.21;41.15
22104;BME280;11218;48.886;9.426;2023-04-04T09:15:59;98781.13;;;6.53;41.18
22104;BME280;11218;48.886;9.426;2023-04-04T09:18:29;98781.53;;;6.70;41.12
22104;BME280;11218;48.886;9.426;2023-04-04T09:20:58;98785.88;;;6.57;40.25
22104;BME280;11218;48.886;9.426;2023-04-04T09:23:26;98785.44;;;6.41;40.53
22104;BME280;11218;48.886;9.426;2023-04-04T09:25:54;98780.72;;;6.43;42.12
22104;BME280;11218;48.886;9.426;2023-04-04T09:28:26;98780.94;;;6.48;41.17
22104;BME280;11218;48.886;9.426;2023-04-04T09:30:55;98776.41;;;6.48;41.22
22104;BME280;11218;48.886;9.426;2023-04-04T09:33:24;98781.13;;;6.33;42.62
22104;BME280;11218;48.886;9.426;2023-04-04T09:35:57;98786.91;;;6.50;41.66
22104;BME280;11218;48.886;9.426;2023-04-04T09:38:27;98779.47;;;6.39;43.16
22104;BME280;11218;48.886;9.426;2023-04-04T09:40:56;98782.97;;;6.72;40.83
22104;BME280;11218;48.886;9.426;2023-04-04T09:43:24;98771.00;;;7.01;39.70
22104;BME280;11218;48.886;9.426;2023-04-04T09:45:57;98777.56;;;7.18;40.98
22104;BME280;11218;48.886;9.426;2023-04-04T09:48:30;98771.28;;;7.44;40.48
22104;BME280;11218;48.886;9.426;2023-04-04T09:51:03;98772.41;;;7.75;39.76
22104;BME280;11218;48.886;9.426;2023-04-04T09:53:33;98778.59;;;7.17;38.82
22104;BME280;11218;48.886;9.426;2023-04-04T09:56:02;98785.25;;;7.53;40.03
22104;BME280;11218;48.886;9.426;2023-04-04T09:58:30;98784.09;;;7.87;40.30
22104;BME280;11218;48.886;9.426;2023-04-04T10:01:03;98785.84;;;8.06;40.19
22104;BME280;11218;48.886;9.426;2023-04-04T10:03:36;98776.13;;;8.12;37.63
22104;BME280;11218;48.886;9.426;2023-04-04T10:06:08;98763.97;;;8.09;37.26
22104;BME280;11218;48.886;9.426;2023-04-04T10:08:38;98753.94;;;8.23;38.34
22104;BME280;11218;48.886;9.426;2023-04-04T10:11:06;98766.66;;;8.41;38.19
22104;BME280;11218;48.886;9.426;2023-04-04T10:13:39;98765.78;;;8.47;36.60
22104;BME280;11218;48.886;9.426;2023-04-04T10:16:10;98759.22;;;8.43;37.00
22104;BME280;11218;48.886;9.426;2023-04-04T10:18:38;98762.66;;;8.18;37.00
22104;BME280;11218;48.886;9.426;2023-04-04T10:21:08;98761.56;;;8.57;39.02
22104;BME280;11218;48.886;9.426;2023-04-04T10:23:44;98767.25;;;8.43;37.99
22104;BME280;11218;48.886;9.426;2023-04-04T10:26:13;98765.09;;;8.20;37.44
22104;BME280;11218;48.886;9.426;2023-04-04T10:28:41;98749.13;;;8.38;36.27
22104;BME280;11218;48.886;9.426;2023-04-04T10:31:16;98750.78;;;8.64;38.03
22104;BME280;11218;48.886;9.426;2023-04-04T10:33:51;98744.16;;;8.67;38.09
22104;BME280;11218;48.886;9.426;2023-04-04T10:36:28;98746.66;;;8.86;36.88
22104;BME280;11218;48.886;9.426;2023-04-04T10:39:02;98742.63;;;8.96;38.40
22104;BME280;11218;48.886;9.426;2023-04-04T10:41:32;98739.66;;;9.22;37.51
22104;BME280;11218;48.886;9.426;2023-04-04T10:44:10;98748.63;;;9.34;36.33
22104;BME280;11218;48.886;9.426;2023-04-04T10:46:41;98742.22;;;9.35;36.14
22104;BME280;11218;48.886;9.426;2023-04-04T10:49:10;98741.75;;;9.57;37.03
22104;BME280;11218;48.886;9.426;2023-04-04T10:51:41;98743.63;;;9.38;35.72
22104;BME280;11218;48.886;9.426;2023-04-04T10:54:21;98738.09;;;9.14;33.74
22104;BME280;11218;48.886;9.426;2023-04-04T10:56:49;98729.16;;;9.20;35.75
22104;BME280;11218;48.886;9.426;2023-04-04T10:59:17;98737.13;;;9.09;36.21
22104;BME280;11218;48.886;9.426;2023-04-04T11:01:54;98735.59;;;8.76;35.48
22104;BME280;11218;48.886;9.426;2023-04-04T11:04:30;98734.84;;;8.44;35.89
22104;BME280;11218;48.886;9.426;2023-04-04T11:07:14;98730.97;;;8.40;36.89
22104;BME280;11218;48.886;9.426;2023-04-04T11:09:53;98729.56;;;8.99;37.69
22104;BME280;11218;48.886;9.426;2023-04-04T11:12:26;98721.06;;;9.02;35.89
22104;BME280;11218;48.886;9.426;2023-04-04T11:15:08;98719.22;;;9.21;36.11
22104;BME280;11218;48.886;9.426;2023-04-04T11:17:49;98713.91;;;9.51;37.46
22104;BME280;11218;48.886;9.426;2023-04-04T11:20:19;98714.72;;;9.81;36.33
22104;BME280;11218;48.886;9.426;2023-04-04T11:23:01;98707.25;;;9.53;34.58
22104;BME280;11218;48.886;9.426;2023-04-04T11:25:31;98719.16;;;9.28;36.62
22104;BME280;11218;48.886;9.426;2023-04-04T11:28:04;98710.19;;;9.52;35.48
22104;BME280;11218;48.886;9.426;2023-04-04T11:30:37;98716.38;;;9.34;35.29
22104;BME280;11218;48.886;9.426;2023-04-04T11:33:10;98708.56;;;9.14;34.75
22104;BME280;11218;48.886;9.426;2023-04-04T11:35:45;98716.53;;;9.21;36.24
22104;BME280;11218;48.886;9.426;2023-04-04T11:38:19;98719.28;;;9.14;36.73
22104;BME280;11218;48.886;9.426;2023-04-04T11:40:56;98720.25;;;9.20;34.95
22104;BME280;11218;48.886;9.426;2023-04-04T11:43:25;98705.19;;;9.01;35.41
22104;BME280;11218;48.886;9.426;2023-04-04T11:46:04;98707.25;;;8.62;35.34
22104;BME280;11218;48.886;9.426;2023-04-04T11:48:34;98708.44;;;8.66;36.81
22104;BME280;11218;48.886;9.426;2023-04-04T11:51:02;98698.19;;;8.81;36.47
22104;BME280;11218;48.886;9.426;2023-04-04T11:53:32;98709.81;;;8.75;36.05
22104;BME280;11218;48.886;9.426;2023-04-04T11:56:00;98697.72;;;8.66;36.05
22104;BME280;11218;48.886;9.426;2023-04-04T11:58:29;98702.66;;;8.87;36.77
22104;BME280;11218;48.886;9.426;2023-04-04T12:00:57;98696.66;;;8.67;35.51
22104;BME280;11218;48.886;9.426;2023-04-04T12:03:28;98703.34;;;8.58;36.22
22104;BME280;11218;48.886;9.426;2023-04-04T12:05:56;98686.03;;;9.15;35.89
22104;BME280;11218;48.886;9.426;2023-04-04T12:08:24;98690.56;;;8.97;35.26
22104;BME280;11218;48.886;9.426;2023-04-04T12:10:54;98695.78;;;8.73;35.58
22104;BME280;11218;48.886;9.426;2023-04-04T12:13:29;98701.28;;;8.35;35.80
22104;BME280;11218;48.886;9.426;2023-04-04T12:15:58;98694.81;;;8.43;36.35
22104;BME280;11218;48.886;9.426;2023-04-04T12:18:26;98700.56;;;8.46;37.18
22104;BME280;11218;48.886;9.426;2023-04-04T12:20:55;98698.75;;;8.65;35.49
22104;BME280;11218;48.886;9.426;2023-04-04T12:23:23;98698.81;;;8.59;36.02
22104;BME280;11218;48.886;9.426;2023-04-04T12:25:55;98688.41;;;8.69;35.93
22104;BME280;11218;48.886;9.426;2023-04-04T12:28:25;98693.88;;;8.55;35.64
22104;BME280;11218;48.886;9.426;2023-04-04T12:30:54;98678.84;;;8.54;35.81
22104;BME280;11218;48.886;9.426;2023-04-04T12:33:22;98678.31;;;8.64;36.50
22104;BME280;11218;48.886;9.426;2023-04-04T12:35:52;98679.25;;;8.76;37.13
22104;BME280;11218;48.886;9.426;2023-04-04T12:38:20;98671.31;;;9.00;36.59
22104;BME280;11218;48.886;9.426;2023-04-04T12:40:50;98670.41;;;9.24;35.63
22104;BME280;11218;48.886;9.426;2023-04-04T12:43:19;98673.88;;;9.61;35.82
22104;BME280;11218;48.886;9.426;2023-04-04T12:45:49;98674.56;;;9.68;36.23
22104;BME280;11218;48.886;9.426;2023-04-04T12:48:17;98670.09;;;9.50;35.57
22104;BME280;11218;48.886;9.426;2023-04-04T12:50:51;98659.25;;;9.57;34.50
22104;BME280;11218;48.886;9.426;2023-04-04T12:53:21;98653.66;;;9.70;35.69
22104;BME280;11218;48.886;9.426;2023-04-04T12:55:53;98651.91;;;9.34;34.26
22104;BME280;11218;48.886;9.426;2023-04-04T12:58:23;98665.06;;;9.24;34.55
22104;BME280;11218;48.886;9.426;2023-04-04T13:00:53;98657.81;;;9.25;35.82
22104;BME280;11218;48.886;9.426;2023-04-04T13:03:23;98656.66;;;9.50;35.13
22104;BME280;11218;48.886;9.426;2023-04-04T13:05:51;98661.50;;;9.72;35.82
22104;BME280;11218;48.886;9.426;2023-04-04T13:08:20;98654.38;;;9.77;35.54
22104;BME280;11218;48.886;9.426;2023-04-04T13:10:58;98651.53;;;10.02;35.68
22104;BME280;11218;48.886;9.426;2023-04-04T13:13:33;98639.75;;;9.73;34.64
22104;BME280;11218;48.886;9.426;2023-04-04T13:16:04;98645.13;;;9.73;34.47
22104;BME280;11218;48.886;9.426;2023-04-04T13:18:36;98643.13;;;9.69;34.58
22104;BME280;11218;48.886;9.426;2023-04-04T13:21:05;98648.41;;;9.64;34.59
22104;BME280;11218;48.886;9.426;2023-04-04T13:23:38;98643.59;;;9.54;33.83